Ana Sayfa
METAR-TAF:

METAR-TAF

Havaalanları :

Bintulu, Malezya

Enlem: 03-12N, Boylam: 113-02E, yükseklik: 2 m

Güncel hava durumu gözlemi

Rapor saat 09:00 UTC de 27 dakika önce yapıldı.
Rüzgar batı/kuzeybatıdan 7 kt, batı/güneybatı ve kuzeydoğu arasında değişken
Sıcaklık 29°C
Nem 84%
Basınç 1007 hPa
Görüş mesafesi 10 km veya daha fazla
1400 ft yükseklikte parçalı bulutlu
30000 ft yükseklikte parçalı çok bulutlu

METAR: WBGB 250900Z 30007KT 240V040 9999 SCT014 BKN300 29/26 Q1007

Saat: 17:27 (09:27 UTC)

Tahmin

Rapor saat 05:00 UTC de 4 saat ve 27 dakika önce yapıldı.
Ayın 25'si saat 06 UTC'den ayın 26'si saat 06 UTC'ye kadar geçerli Tahmin
Rüzgar kuzey/kuzeybatıdan 8 kt
Görüş mesafesi 10 km veya daha fazla
1600 ft yükseklikte parçalı bulutlu

TAF: WBGB 250500Z 2506/2606 34008KT 9999 SCT016

4.000'den fazla havaalanı için hava durumu gözlemleri ve tahminleri (METAR ve TAF raporları).

Kullanılabilir istasyonlar harita üzerinde sarı ve kırmızı noktalarla gösterilir.

İstasyonun adını görmek için fareyi noktanın üzerinde gezdirin.

Sonrasında hava gözlem ve tahminlerini görmek için tıklayın.

Haritayı değiştirmek için: yaklaştırmak için siyah artı işaretli yeşil düğmeye ve uzaklaştırmak için de eksi işaretli düğmeye hızla tıklayın; bitişik haritalar için yeşil okları kullanın.


METAR-TAF: